Time;durP1;ratioP1;P1;durP2;ratioP2;P2;SDS_P1;SDS_P2;PMS_P1;PMS_P2;Temp;Humidity;BMP_temperature;BMP_pressure;BME280_temperature;BME280_humidity;BME280_pressure;Samples;Min_cycle;Max_cycle;Signal;HPM_P1;HPM_P2
2021/07/07 00:01:38;;;;;;;1.77;1.10;;;17.00;99.90;;;;;;4992121;28;20033;-31
2021/07/07 00:04:04;;;;;;;3.15;1.20;;;17.00;99.90;;;;;;4990970;28;20549;-32
2021/07/07 00:06:30;;;;;;;4.35;1.60;;;17.00;99.90;;;;;;4992225;28;20054;-32
2021/07/07 00:08:55;;;;;;;2.60;1.40;;;17.00;99.90;;;;;;4991358;28;20057;-31
2021/07/07 00:11:21;;;;;;;2.78;1.30;;;17.10;99.90;;;;;;4991931;28;20025;-31
2021/07/07 00:13:46;;;;;;;2.20;1.20;;;17.10;99.90;;;;;;4991565;28;20073;-31
2021/07/07 00:16:12;;;;;;;3.15;1.33;;;17.10;99.90;;;;;;4990819;28;20037;-32
2021/07/07 00:18:38;;;;;;;2.83;1.33;;;17.10;99.90;;;;;;4991494;28;20101;-32
2021/07/07 00:21:04;;;;;;;2.85;1.30;;;17.10;99.90;;;;;;4991640;28;21269;-32
2021/07/07 00:23:30;;;;;;;2.53;1.23;;;17.00;99.90;;;;;;4992516;28;20595;-32
2021/07/07 00:25:57;;;;;;;3.22;1.30;;;17.00;99.90;;;;;;4990416;28;20462;-32
2021/07/07 00:28:23;;;;;;;1.90;1.00;;;17.00;99.90;;;;;;4991985;28;20645;-32
2021/07/07 00:30:50;;;;;;;2.70;1.23;;;17.00;99.90;;;;;;4991891;28;20109;-32
2021/07/07 00:33:16;;;;;;;3.00;1.20;;;17.00;99.90;;;;;;4990089;28;20378;-32
2021/07/07 00:35:42;;;;;;;3.40;1.40;;;16.90;99.90;;;;;;4992001;28;20106;-32
2021/07/07 00:38:08;;;;;;;2.10;1.40;;;16.90;99.90;;;;;;4990748;28;20192;-32
2021/07/07 00:40:37;;;;;;;4.10;1.30;;;16.90;99.90;;;;;;4991268;28;20393;-31
2021/07/07 00:43:03;;;;;;;3.95;1.38;;;16.80;99.90;;;;;;4991015;28;20038;-31
2021/07/07 00:45:28;;;;;;;2.58;1.20;;;16.70;99.90;;;;;;4992064;28;20019;-31
2021/07/07 00:47:56;;;;;;;1.52;1.10;;;16.70;99.90;;;;;;4990603;28;20021;-31
2021/07/07 00:50:23;;;;;;;2.80;1.40;;;16.60;99.90;;;;;;4991613;28;20124;-31
2021/07/07 00:52:48;;;;;;;5.80;1.70;;;16.60;99.90;;;;;;4991219;28;20022;-31
2021/07/07 00:55:16;;;;;;;4.85;1.60;;;16.50;99.90;;;;;;4991156;28;20046;-31
2021/07/07 00:57:45;;;;;;;1.83;1.30;;;16.50;99.90;;;;;;4990755;28;20081;-32
2021/07/07 01:00:16;;;;;;;2.15;1.40;;;16.40;99.90;;;;;;4990436;28;20040;-31
2021/07/07 01:02:44;;;;;;;3.22;1.27;;;16.40;99.90;;;;;;4991275;28;20089;-31
2021/07/07 01:05:14;;;;;;;4.43;1.40;;;16.30;99.90;;;;;;4990972;28;20031;-31
2021/07/07 01:07:40;;;;;;;3.85;1.40;;;16.30;99.90;;;;;;4990397;28;20053;-31
2021/07/07 01:10:09;;;;;;;2.85;1.30;;;16.30;99.90;;;;;;4990945;28;20046;-31
2021/07/07 01:12:34;;;;;;;4.78;1.50;;;16.20;99.90;;;;;;4990900;28;20034;-31
2021/07/07 01:15:09;;;;;;;4.30;1.52;;;16.20;99.90;;;;;;4989658;28;20069;-32
2021/07/07 01:17:38;;;;;;;3.88;1.60;;;16.20;99.90;;;;;;4991193;28;20465;-32
2021/07/07 01:20:09;;;;;;;2.45;1.50;;;16.10;99.90;;;;;;4990083;28;20026;-32
2021/07/07 01:22:36;;;;;;;2.63;1.30;;;16.10;99.90;;;;;;4991028;28;20402;-32
2021/07/07 01:25:02;;;;;;;1.45;1.35;;;16.00;99.90;;;;;;4990234;28;20281;-32
2021/07/07 01:27:28;;;;;;;1.92;1.30;;;16.00;99.90;;;;;;4991219;28;20025;-32
2021/07/07 01:29:57;;;;;;;1.85;1.30;;;16.00;99.90;;;;;;4990205;28;20015;-32
2021/07/07 01:32:22;;;;;;;3.63;1.48;;;16.00;99.90;;;;;;4990813;28;20488;-31
2021/07/07 01:34:49;;;;;;;2.28;1.13;;;16.00;99.90;;;;;;4990440;28;20113;-31
2021/07/07 01:37:15;;;;;;;2.88;1.50;;;15.90;99.90;;;;;;4990089;28;20026;-31
2021/07/07 01:39:41;;;;;;;3.40;1.40;;;15.90;99.90;;;;;;4990358;28;20466;-31
2021/07/07 01:42:07;;;;;;;2.03;1.40;;;15.90;99.90;;;;;;4990654;28;20026;-31
2021/07/07 01:44:36;;;;;;;3.17;1.27;;;15.80;99.90;;;;;;4990111;28;20014;-32
2021/07/07 01:47:03;;;;;;;2.03;1.48;;;15.80;99.90;;;;;;4990386;28;20516;-32
2021/07/07 01:49:29;;;;;;;3.28;1.70;;;15.80;99.90;;;;;;4989997;28;20018;-31
2021/07/07 01:51:55;;;;;;;2.05;1.42;;;15.80;99.90;;;;;;4989920;28;20033;-31
2021/07/07 01:54:21;;;;;;;1.73;1.40;;;15.70;99.90;;;;;;4990032;28;20014;-31
2021/07/07 01:56:46;;;;;;;3.22;1.52;;;15.70;99.90;;;;;;4989468;28;20081;-31
2021/07/07 01:59:12;;;;;;;3.05;1.60;;;15.70;99.90;;;;;;4989990;28;20057;-32
2021/07/07 02:01:38;;;;;;;2.13;1.25;;;15.70;99.90;;;;;;4991016;28;20018;-32
2021/07/07 02:04:03;;;;;;;2.58;1.38;;;15.70;99.90;;;;;;4988924;28;20026;-32
2021/07/07 02:06:29;;;;;;;4.15;1.50;;;15.70;99.90;;;;;;4990783;28;20034;-32
2021/07/07 02:08:56;;;;;;;4.05;1.60;;;15.70;99.90;;;;;;4989649;28;20172;-32
2021/07/07 02:11:22;;;;;;;2.00;1.25;;;15.60;99.90;;;;;;4989957;28;20026;-32
2021/07/07 02:13:47;;;;;;;4.63;1.80;;;15.60;99.90;;;;;;4990375;28;20018;-32
2021/07/07 02:16:13;;;;;;;3.35;1.60;;;15.60;99.90;;;;;;4990030;28;20094;-31
2021/07/07 02:18:41;;;;;;;3.22;1.63;;;15.60;99.90;;;;;;4989916;28;20588;-32
2021/07/07 02:21:07;;;;;;;1.90;1.50;;;15.50;99.90;;;;;;4989683;28;20011;-31
2021/07/07 02:23:33;;;;;;;2.45;1.50;;;15.50;99.90;;;;;;4989251;28;20033;-32
2021/07/07 02:25:58;;;;;;;3.03;1.50;;;15.50;99.90;;;;;;4989202;28;20021;-31
2021/07/07 02:28:25;;;;;;;3.88;1.70;;;15.50;99.90;;;;;;4990165;28;20034;-32
2021/07/07 02:30:52;;;;;;;2.50;1.63;;;15.50;99.90;;;;;;4989837;28;20045;-31
2021/07/07 02:33:19;;;;;;;1.92;1.65;;;15.50;99.90;;;;;;4981579;28;20023;-31
2021/07/07 02:35:45;;;;;;;2.33;1.60;;;15.50;99.90;;;;;;4989596;28;20081;-31
2021/07/07 02:38:13;;;;;;;2.53;1.48;;;15.50;99.90;;;;;;4989618;28;20038;-31
2021/07/07 02:40:40;;;;;;;2.45;1.40;;;15.40;99.90;;;;;;4989799;28;20033;-31
2021/07/07 02:43:06;;;;;;;2.80;1.60;;;15.50;99.90;;;;;;4989640;28;20466;-31
2021/07/07 02:45:33;;;;;;;3.50;1.92;;;15.40;99.90;;;;;;4989693;28;20462;-31
2021/07/07 02:47:59;;;;;;;2.15;1.77;;;15.40;99.90;;;;;;4989477;28;20022;-31
2021/07/07 02:50:25;;;;;;;2.00;1.80;;;15.40;99.90;;;;;;4990270;28;20334;-31
2021/07/07 02:52:52;;;;;;;2.55;1.70;;;15.40;99.90;;;;;;4988837;28;20930;-31
2021/07/07 02:55:19;;;;;;;4.72;2.13;;;15.50;99.90;;;;;;4990265;28;20026;-32
2021/07/07 02:57:57;;;;;;;2.75;1.83;;;15.40;99.90;;;;;;4989415;28;20023;-33
2021/07/07 03:00:37;;;;;;;2.72;1.85;;;15.40;99.90;;;;;;4970050;28;20106;-33
2021/07/07 03:03:10;;;;;;;4.03;2.00;;;15.40;99.90;;;;;;4989211;28;20042;-31
2021/07/07 03:05:37;;;;;;;;;;;15.40;99.90;;;;;;4974740;28;20407;-31
2021/07/07 03:08:03;;;;;;;4.20;1.70;;;15.40;99.90;;;;;;4987168;28;19910;-31
2021/07/07 03:10:28;;;;;;;4.50;2.28;;;15.40;99.90;;;;;;4994220;28;20049;-31
2021/07/07 03:12:55;;;;;;;5.35;2.15;;;15.40;99.90;;;;;;4992940;28;20030;-31
2021/07/07 03:15:21;;;;;;;3.67;2.28;;;15.40;99.90;;;;;;4992933;28;20504;-31
2021/07/07 03:17:46;;;;;;;5.75;2.40;;;15.50;99.90;;;;;;4993138;28;20022;-31
2021/07/07 03:20:13;;;;;;;3.17;2.20;;;15.50;99.90;;;;;;4993374;28;20146;-32
2021/07/07 03:22:39;;;;;;;3.35;2.00;;;15.60;99.90;;;;;;4992936;28;20025;-31
2021/07/07 03:25:05;;;;;;;4.57;2.00;;;15.60;99.90;;;;;;4993582;28;20022;-31
2021/07/07 03:27:34;;;;;;;3.92;2.20;;;15.60;99.90;;;;;;4993181;28;20049;-31
2021/07/07 03:29:59;;;;;;;3.83;2.10;;;15.60;99.90;;;;;;4991637;28;20026;-31
2021/07/07 03:32:25;;;;;;;2.45;2.25;;;15.50;99.90;;;;;;4992997;28;20030;-31
2021/07/07 03:34:50;;;;;;;2.65;2.30;;;15.50;99.90;;;;;;4992390;28;20029;-32
2021/07/07 03:37:16;;;;;;;3.05;2.58;;;15.40;99.90;;;;;;4992808;28;20532;-32
2021/07/07 03:39:42;;;;;;;2.60;2.28;;;15.40;99.90;;;;;;4992830;28;20046;-32
2021/07/07 03:42:07;;;;;;;3.15;2.20;;;15.40;99.90;;;;;;4991866;28;20378;-31
2021/07/07 03:44:33;;;;;;;5.47;2.25;;;15.40;99.90;;;;;;4993225;28;20022;-31
2021/07/07 03:46:58;;;;;;;3.10;2.30;;;15.40;99.90;;;;;;4992594;28;20021;-31
2021/07/07 03:49:24;;;;;;;4.05;2.60;;;15.40;99.90;;;;;;4991804;28;20038;-32
2021/07/07 03:51:50;;;;;;;2.92;2.63;;;15.50;99.90;;;;;;4991933;28;20019;-31
2021/07/07 03:54:15;;;;;;;2.70;2.30;;;15.50;99.90;;;;;;4991601;28;20022;-31
2021/07/07 03:56:41;;;;;;;4.88;3.05;;;15.50;99.90;;;;;;4991176;28;20025;-31
2021/07/07 03:59:06;;;;;;;5.05;2.13;;;15.60;99.90;;;;;;4992262;28;20034;-31
2021/07/07 04:01:32;;;;;;;2.25;2.05;;;15.60;99.90;;;;;;4992590;28;20022;-31
2021/07/07 04:04:00;;;;;;;3.10;2.45;;;15.60;99.90;;;;;;4991435;28;20382;-32
2021/07/07 04:06:26;;;;;;;4.35;2.45;;;15.60;99.90;;;;;;4992463;28;20096;-31
2021/07/07 04:08:51;;;;;;;3.58;2.38;;;15.60;99.90;;;;;;4991287;28;20477;-32
2021/07/07 04:11:17;;;;;;;5.57;2.63;;;15.60;99.90;;;;;;4991618;28;20058;-32
2021/07/07 04:13:43;;;;;;;2.78;2.45;;;15.60;99.90;;;;;;4989959;28;20053;-32
2021/07/07 04:16:13;;;;;;;3.30;2.55;;;15.60;99.90;;;;;;4992093;28;20105;-31
2021/07/07 04:18:39;;;;;;;7.15;2.80;;;15.60;99.90;;;;;;4991439;28;20466;-32
2021/07/07 04:21:05;;;;;;;4.28;2.50;;;15.60;99.90;;;;;;4991438;28;20109;-31
2021/07/07 04:23:30;;;;;;;4.43;2.60;;;15.50;99.90;;;;;;4992636;28;20122;-31
2021/07/07 04:25:56;;;;;;;3.25;2.63;;;15.50;99.90;;;;;;4990256;28;20030;-31
2021/07/07 04:28:21;;;;;;;3.55;2.47;;;15.60;99.90;;;;;;4992713;28;20026;-31
2021/07/07 04:30:47;;;;;;;7.20;2.65;;;15.60;99.90;;;;;;4991605;28;20023;-31
2021/07/07 04:33:12;;;;;;;4.22;2.42;;;15.60;99.90;;;;;;4991058;28;20030;-31
2021/07/07 04:35:38;;;;;;;4.03;2.53;;;15.60;99.90;;;;;;4992063;28;20015;-31
2021/07/07 04:38:03;;;;;;;4.25;2.80;;;15.60;99.90;;;;;;4989613;28;20525;-31
2021/07/07 04:40:31;;;;;;;5.47;2.72;;;15.60;99.90;;;;;;4991757;28;20097;-31
2021/07/07 04:42:59;;;;;;;5.13;2.58;;;15.70;99.90;;;;;;4991686;28;20517;-31
2021/07/07 04:45:25;;;;;;;5.63;2.88;;;15.70;99.90;;;;;;4991146;28;20579;-33
2021/07/07 04:47:50;;;;;;;5.15;2.88;;;15.70;99.90;;;;;;4991095;28;20027;-31
2021/07/07 04:50:17;;;;;;;4.20;2.53;;;15.70;99.90;;;;;;4991749;28;20049;-31
2021/07/07 04:52:43;;;;;;;3.58;2.60;;;15.70;99.90;;;;;;4990708;28;20019;-31
2021/07/07 04:55:11;;;;;;;4.43;2.47;;;15.80;99.90;;;;;;4991199;28;20389;-31
2021/07/07 04:57:43;;;;;;;2.90;2.60;;;15.80;99.90;;;;;;4990136;28;20690;-31
2021/07/07 05:00:09;;;;;;;4.20;2.47;;;15.80;99.90;;;;;;4990337;28;20097;-32
2021/07/07 05:02:34;;;;;;;4.75;2.58;;;15.90;99.90;;;;;;4991978;28;20382;-32
2021/07/07 05:05:00;;;;;;;3.67;2.67;;;15.90;99.90;;;;;;4991064;28;20033;-32
2021/07/07 05:07:25;;;;;;;3.63;2.47;;;16.00;99.90;;;;;;4990465;28;20022;-31
2021/07/07 05:09:51;;;;;;;4.25;2.42;;;16.20;99.90;;;;;;4991191;28;20046;-31
2021/07/07 05:12:16;;;;;;;4.95;2.63;;;16.20;99.90;;;;;;4990340;28;20018;-31
2021/07/07 05:14:42;;;;;;;3.60;2.58;;;16.30;99.90;;;;;;4973700;28;20027;-31
2021/07/07 05:17:07;;;;;;;3.70;2.35;;;16.40;99.90;;;;;;4988274;28;20022;-32
2021/07/07 05:19:33;;;;;;;4.72;2.88;;;16.60;99.90;;;;;;4989449;28;20490;-32
2021/07/07 05:22:02;;;;;;;5.22;2.70;;;16.70;99.90;;;;;;4989264;28;20163;-32
2021/07/07 05:24:27;;;;;;;4.55;2.40;;;16.80;99.90;;;;;;4989288;28;20026;-31
2021/07/07 05:26:56;;;;;;;4.10;2.30;;;16.90;99.90;;;;;;4988960;28;20033;-31
2021/07/07 05:29:21;;;;;;;5.15;2.35;;;17.00;99.90;;;;;;4988774;28;20030;-31
2021/07/07 05:31:49;;;;;;;2.90;2.33;;;17.00;99.90;;;;;;4990018;28;20022;-32
2021/07/07 05:34:14;;;;;;;4.68;2.47;;;17.10;99.90;;;;;;4990244;28;20027;-32
2021/07/07 05:36:40;;;;;;;3.75;2.30;;;17.10;99.90;;;;;;4990569;28;20033;-32
2021/07/07 05:39:05;;;;;;;3.60;2.15;;;17.20;99.90;;;;;;4989830;28;20117;-32
2021/07/07 05:41:31;;;;;;;4.63;2.47;;;17.30;99.90;;;;;;4989878;28;20389;-32
2021/07/07 05:43:56;;;;;;;3.35;2.45;;;17.30;99.90;;;;;;4990599;28;20031;-34
2021/07/07 05:46:22;;;;;;;3.45;2.17;;;17.40;99.90;;;;;;4990031;28;20568;-32
2021/07/07 05:48:53;;;;;;;5.22;2.33;;;17.50;99.90;;;;;;4989958;28;20105;-31
2021/07/07 05:51:19;;;;;;;5.27;2.47;;;17.60;99.90;;;;;;4990599;28;20109;-31
2021/07/07 05:53:45;;;;;;;2.53;2.20;;;17.60;99.90;;;;;;4989228;28;20118;-31
2021/07/07 05:56:16;;;;;;;5.30;2.67;;;17.80;99.90;;;;;;4989493;28;20469;-32
2021/07/07 05:58:42;;;;;;;4.30;2.07;;;17.80;99.90;;;;;;4981824;28;20440;-32
2021/07/07 06:01:07;;;;;;;4.75;2.33;;;17.80;99.90;;;;;;4989845;28;20049;-32
2021/07/07 06:03:40;;;;;;;5.35;2.40;;;17.90;99.90;;;;;;4989361;28;20085;-32
2021/07/07 06:06:06;;;;;;;4.10;2.20;;;18.00;99.90;;;;;;4990272;28;20033;-34
2021/07/07 06:08:32;;;;;;;4.88;2.13;;;18.00;99.90;;;;;;4989803;28;20038;-34
2021/07/07 06:10:57;;;;;;;5.28;3.03;;;18.00;99.90;;;;;;4989559;28;20054;-34
2021/07/07 06:13:23;;;;;;;4.95;1.98;;;18.00;99.90;;;;;;4990364;28;20058;-34
2021/07/07 06:15:50;;;;;;;4.93;2.25;;;18.00;99.90;;;;;;4990100;28;20022;-34
2021/07/07 06:18:15;;;;;;;4.68;2.13;;;18.10;99.90;;;;;;4989159;28;20022;-34
2021/07/07 06:20:42;;;;;;;4.72;2.08;;;18.20;99.90;;;;;;4989759;28;20474;-35
2021/07/07 06:23:07;;;;;;;5.43;2.13;;;18.20;99.90;;;;;;4988971;28;20046;-34
2021/07/07 06:25:33;;;;;;;4.45;2.53;;;18.30;99.90;;;;;;4988874;28;20019;-34
2021/07/07 06:28:00;;;;;;;5.97;2.38;;;18.40;99.90;;;;;;4990100;28;20026;-34
2021/07/07 06:30:27;;;;;;;6.28;2.83;;;18.50;99.90;;;;;;4989674;28;20037;-34
2021/07/07 06:32:54;;;;;;;5.32;2.75;;;18.50;99.90;;;;;;4989074;28;20022;-34
2021/07/07 06:35:21;;;;;;;6.00;3.05;;;18.60;99.90;;;;;;4989149;28;20026;-34
2021/07/07 06:37:49;;;;;;;6.88;2.88;;;18.60;99.90;;;;;;4988687;28;20014;-33
2021/07/07 06:40:16;;;;;;;6.03;3.20;;;18.60;99.90;;;;;;4989361;28;20117;-31
2021/07/07 06:42:45;;;;;;;4.68;2.58;;;18.70;99.90;;;;;;4989875;28;20015;-31
2021/07/07 06:45:11;;;;;;;8.00;2.92;;;18.70;99.90;;;;;;4988556;28;20466;-31
2021/07/07 06:47:37;;;;;;;4.10;2.42;;;18.80;99.90;;;;;;4990272;28;20398;-33
2021/07/07 06:50:08;;;;;;;5.40;2.55;;;18.80;99.90;;;;;;4988249;28;20042;-32
2021/07/07 06:52:34;;;;;;;6.40;3.25;;;18.90;99.90;;;;;;4989200;28;20030;-31
2021/07/07 06:55:00;;;;;;;5.07;2.95;;;18.90;99.90;;;;;;4988010;28;20034;-31
2021/07/07 06:57:25;;;;;;;8.05;4.05;;;19.00;99.90;;;;;;4989349;28;20113;-33
2021/07/07 06:59:51;;;;;;;8.32;3.47;;;19.10;99.90;;;;;;4989123;28;20034;-33
2021/07/07 07:02:17;;;;;;;5.28;3.30;;;19.20;99.90;;;;;;4988589;28;20080;-33
2021/07/07 07:04:49;;;;;;;8.07;3.38;;;19.30;99.90;;;;;;4989017;28;20031;-33
2021/07/07 07:07:14;;;;;;;6.88;3.08;;;19.40;99.90;;;;;;4988971;28;20023;-33
2021/07/07 07:09:40;;;;;;;6.18;2.90;;;19.40;99.90;;;;;;4980881;28;20071;-31
2021/07/07 07:12:05;;;;;;;7.32;2.80;;;19.40;99.90;;;;;;4989339;28;20496;-31
2021/07/07 07:14:31;;;;;;;5.80;2.85;;;19.30;99.90;;;;;;4989213;28;20069;-32
2021/07/07 07:16:57;;;;;;;6.20;3.05;;;19.30;99.90;;;;;;4989012;28;20020;-31
2021/07/07 07:19:22;;;;;;;6.00;2.60;;;19.20;99.90;;;;;;4989919;28;20393;-34
2021/07/07 07:21:48;;;;;;;6.97;2.70;;;19.10;99.90;;;;;;4988620;28;20466;-33
2021/07/07 07:24:13;;;;;;;4.43;2.20;;;19.10;99.90;;;;;;4989704;28;20038;-34
2021/07/07 07:26:39;;;;;;;5.80;2.30;;;19.10;99.90;;;;;;4990238;28;20073;-34
2021/07/07 07:29:05;;;;;;;7.85;2.92;;;19.10;99.90;;;;;;4989065;28;20101;-34
2021/07/07 07:31:31;;;;;;;4.38;2.78;;;19.10;99.90;;;;;;4987316;28;20015;-33
2021/07/07 07:33:57;;;;;;;3.53;2.35;;;19.20;99.90;;;;;;4988118;28;20050;-33
2021/07/07 07:36:23;;;;;;;6.00;2.65;;;19.20;99.90;;;;;;4989577;28;20050;-33
2021/07/07 07:38:58;;;;;;;6.28;2.50;;;19.20;99.90;;;;;;4989356;28;20036;-34
2021/07/07 07:41:27;;;;;;;7.20;2.67;;;19.20;99.90;;;;;;4989056;28;20057;-34
2021/07/07 07:43:53;;;;;;;4.35;2.47;;;19.10;99.90;;;;;;4989605;28;20359;-33
2021/07/07 07:46:24;;;;;;;5.63;2.50;;;19.10;99.90;;;;;;4989228;28;20026;-33
2021/07/07 07:48:49;;;;;;;4.85;2.20;;;19.10;99.90;;;;;;4992335;28;20428;-33
2021/07/07 07:51:15;;;;;;;5.15;2.30;;;19.10;99.90;;;;;;4992957;28;20026;-34
2021/07/07 07:53:41;;;;;;;6.72;2.90;;;19.10;99.90;;;;;;4992211;28;20034;-34
2021/07/07 07:56:07;;;;;;;6.53;2.25;;;19.20;99.90;;;;;;4991821;28;20471;-33
2021/07/07 07:58:34;;;;;;;5.80;3.15;;;19.20;99.90;;;;;;4992327;28;20125;-33
2021/07/07 08:00:59;;;;;;;4.85;2.67;;;19.20;99.90;;;;;;4992080;28;20419;-34
2021/07/07 08:03:25;;;;;;;4.95;2.70;;;19.20;99.90;;;;;;4991532;28;20041;-34
2021/07/07 08:05:50;;;;;;;6.13;2.72;;;19.20;99.90;;;;;;4991434;28;20026;-34
2021/07/07 08:08:16;;;;;;;4.47;2.10;;;19.20;99.90;;;;;;4991922;28;20046;-33
2021/07/07 08:10:41;;;;;;;8.25;3.47;;;19.20;99.90;;;;;;4991916;28;20022;-33
2021/07/07 08:13:07;;;;;;;4.47;2.08;;;19.30;99.90;;;;;;4991918;28;20639;-44
2021/07/07 08:15:34;;;;;;;3.13;2.10;;;19.30;99.90;;;;;;4992663;28;20555;-34
2021/07/07 08:18:00;;;;;;;8.07;2.60;;;19.30;99.90;;;;;;4991302;28;20417;-34
2021/07/07 08:20:26;;;;;;;6.15;2.42;;;19.40;99.90;;;;;;4991583;28;20065;-34
2021/07/07 08:22:52;;;;;;;6.40;3.25;;;19.40;99.80;;;;;;4992109;28;20026;-34
2021/07/07 08:25:19;;;;;;;4.57;2.30;;;19.50;99.90;;;;;;4990925;28;20125;-34
2021/07/07 08:27:46;;;;;;;5.07;2.67;;;19.50;99.80;;;;;;4991447;28;20025;-34
2021/07/07 08:30:12;;;;;;;3.97;2.47;;;19.60;99.80;;;;;;4990014;28;20030;-33
2021/07/07 08:32:38;;;;;;;6.47;2.85;;;19.60;99.70;;;;;;4991144;28;20046;-34
2021/07/07 08:35:05;;;;;;;6.47;2.22;;;19.70;99.70;;;;;;4991958;28;20025;-33
2021/07/07 08:37:31;;;;;;;7.70;2.42;;;19.80;99.90;;;;;;4991025;28;20034;-34
2021/07/07 08:39:56;;;;;;;7.22;2.33;;;19.90;99.20;;;;;;4986421;28;20031;-34
2021/07/07 08:42:22;;;;;;;4.57;2.25;;;20.10;99.10;;;;;;4992016;28;20026;-34
2021/07/07 08:44:48;;;;;;;3.65;1.80;;;20.20;98.70;;;;;;4990823;28;20385;-34
2021/07/07 08:47:14;;;;;;;5.40;1.80;;;20.30;98.20;;;;;;4991229;28;20169;-34
2021/07/07 08:49:40;;;;;;;6.50;1.80;;;20.30;98.10;;;;;;4991572;28;20026;-34
2021/07/07 08:52:06;;;;;;;2.80;1.55;;;20.40;98.00;;;;;;4991133;28;20552;-34
2021/07/07 08:54:32;;;;;;;6.03;1.95;;;20.40;98.40;;;;;;4991618;28;20469;-34
2021/07/07 08:57:09;;;;;;;5.25;1.77;;;20.40;97.90;;;;;;4991460;28;20022;-34
2021/07/07 08:59:35;;;;;;;4.47;1.60;;;20.40;97.50;;;;;;4990534;28;20421;-34
2021/07/07 09:02:06;;;;;;;3.75;1.60;;;20.60;97.60;;;;;;4991157;28;20045;-34
2021/07/07 09:04:41;;;;;;;5.28;1.75;;;20.60;97.30;;;;;;4992049;28;20469;-34
2021/07/07 09:07:09;;;;;;;3.47;1.58;;;20.70;96.90;;;;;;4990692;28;20093;-34
2021/07/07 09:09:46;;;;;;;5.38;2.03;;;20.80;97.20;;;;;;4990921;28;20046;-44
2021/07/07 09:12:25;;;;;;;6.35;2.17;;;20.80;96.60;;;;;;4991255;28;20496;-34
2021/07/07 09:15:11;;;;;;;2.28;1.85;;;20.90;96.60;;;;;;4991136;28;20038;-34
2021/07/07 09:17:41;;;;;;;5.68;2.38;;;21.00;96.30;;;;;;4991171;28;20493;-34
2021/07/07 09:20:21;;;;;;;4.75;2.47;;;21.20;96.30;;;;;;4989639;28;20396;-34
2021/07/07 09:22:49;;;;;;;3.58;1.80;;;21.40;96.20;;;;;;4990599;28;20033;-34
2021/07/07 09:25:18;;;;;;;7.05;2.03;;;21.50;95.50;;;;;;4989966;28;20026;-34
2021/07/07 09:27:44;;;;;;;5.32;2.08;;;21.70;95.30;;;;;;4990315;28;20030;-34
2021/07/07 09:30:13;;;;;;;4.50;1.77;;;21.90;94.90;;;;;;4989818;28;20030;-34
2021/07/07 09:32:43;;;;;;;4.53;1.75;;;22.00;94.20;;;;;;4991185;28;20041;-34
2021/07/07 09:35:10;;;;;;;5.05;1.67;;;22.20;94.00;;;;;;4990231;28;20023;-34
2021/07/07 09:37:43;;;;;;;4.40;1.90;;;22.30;93.10;;;;;;4991079;28;20032;-34
2021/07/07 09:40:10;;;;;;;3.40;1.63;;;22.20;93.40;;;;;;4990641;28;20498;-33
2021/07/07 09:42:38;;;;;;;2.45;1.48;;;22.20;93.40;;;;;;4990364;28;20553;-34
2021/07/07 09:45:06;;;;;;;3.38;1.60;;;22.10;93.80;;;;;;4990339;28;20109;-34
2021/07/07 09:47:31;;;;;;;7.22;1.88;;;22.10;93.90;;;;;;4990035;28;20025;-34
2021/07/07 09:49:58;;;;;;;4.07;1.50;;;22.10;93.90;;;;;;4989874;28;20022;-34
2021/07/07 09:52:26;;;;;;;3.72;1.60;;;22.10;94.10;;;;;;4990764;28;20044;-34
2021/07/07 09:54:53;;;;;;;5.22;1.75;;;22.20;93.70;;;;;;4989844;28;20027;-34
2021/07/07 09:57:19;;;;;;;5.07;1.70;;;22.30;92.90;;;;;;4989652;28;20102;-33
2021/07/07 09:59:46;;;;;;;4.60;1.50;;;22.40;93.00;;;;;;4990473;28;20050;-31
2021/07/07 10:02:11;;;;;;;3.55;1.40;;;22.40;93.10;;;;;;4988998;28;20121;-32
2021/07/07 10:04:43;;;;;;;3.05;1.38;;;22.40;93.30;;;;;;4990434;28;20315;-32
2021/07/07 10:07:10;;;;;;;3.22;1.48;;;22.30;93.40;;;;;;4989609;28;20124;-33
2021/07/07 10:09:43;;;;;;;2.42;1.50;;;22.20;93.20;;;;;;4988997;28;20096;-33
2021/07/07 10:12:09;;;;;;;5.05;1.67;;;22.10;93.10;;;;;;4988974;28;20041;-33
2021/07/07 10:14:38;;;;;;;4.80;1.85;;;22.10;93.30;;;;;;4990776;28;20018;-33
2021/07/07 10:17:04;;;;;;;3.00;1.50;;;22.10;93.60;;;;;;4988897;28;20032;-34
2021/07/07 10:19:30;;;;;;;3.88;1.38;;;22.20;93.30;;;;;;4989670;28;20030;-33
2021/07/07 10:21:56;;;;;;;3.70;1.60;;;22.30;93.20;;;;;;4989015;28;20073;-33
2021/07/07 10:24:27;;;;;;;3.67;1.70;;;22.50;92.90;;;;;;4990062;28;20036;-33
2021/07/07 10:26:57;;;;;;;4.35;1.88;;;22.60;93.10;;;;;;4989360;28;20058;-33
2021/07/07 10:29:24;;;;;;;6.30;1.67;;;22.70;92.30;;;;;;4990199;28;20367;-33
2021/07/07 10:32:00;;;;;;;6.35;1.85;;;22.80;92.00;;;;;;4989325;28;20037;-33
2021/07/07 10:34:30;;;;;;;5.30;1.70;;;23.00;91.50;;;;;;4989831;28;20027;-33
2021/07/07 10:36:57;;;;;;;4.35;2.03;;;23.10;91.40;;;;;;4988939;28;20049;-34
2021/07/07 10:39:23;;;;;;;3.83;1.58;;;23.20;90.90;;;;;;4979519;28;20045;-34
2021/07/07 10:42:05;;;;;;;3.90;1.63;;;23.20;90.90;;;;;;4989547;28;20018;-34
2021/07/07 10:44:38;;;;;;;5.05;1.75;;;23.30;90.90;;;;;;4989074;28;20029;-34
2021/07/07 10:47:12;;;;;;;4.00;1.80;;;23.30;90.20;;;;;;4989135;28;20544;-33
2021/07/07 10:49:50;;;;;;;7.22;1.83;;;23.30;90.80;;;;;;4989957;28;20018;-34
2021/07/07 10:52:28;;;;;;;5.18;2.22;;;23.30;91.00;;;;;;4988785;28;20038;-34
2021/07/07 10:54:56;;;;;;;3.85;1.50;;;23.40;91.00;;;;;;4978381;28;20490;-34
2021/07/07 10:57:24;;;;;;;3.05;1.38;;;23.50;91.00;;;;;;4989541;28;20062;-34
2021/07/07 10:59:54;;;;;;;3.60;1.42;;;23.50;90.80;;;;;;4989116;28;20414;-34
2021/07/07 11:02:25;;;;;;;3.03;1.40;;;23.50;90.80;;;;;;4989936;28;20471;-34
2021/07/07 11:04:58;;;;;;;5.30;1.92;;;23.50;90.70;;;;;;4986164;28;20042;-34
2021/07/07 11:07:33;;;;;;;3.60;1.30;;;23.50;90.80;;;;;;4989473;28;20111;-34
2021/07/07 11:10:00;;;;;;;3.85;1.30;;;23.50;91.00;;;;;;4985476;28;20185;-34
2021/07/07 11:12:35;;;;;;;2.80;1.50;;;23.40;91.00;;;;;;4989228;28;20273;-34
2021/07/07 11:15:13;;;;;;;3.38;1.10;;;23.30;91.10;;;;;;4987973;28;20030;-34
2021/07/07 11:17:59;;;;;;;2.47;1.10;;;23.30;91.30;;;;;;4989268;28;20517;-34
2021/07/07 11:20:30;;;;;;;4.03;1.60;;;23.30;91.00;;;;;;4984940;28;20049;-34
2021/07/07 11:23:02;;;;;;;3.70;1.45;;;23.30;90.60;;;;;;4990843;28;20116;-34
2021/07/07 11:25:28;;;;;;;2.63;1.30;;;23.30;90.40;;;;;;4988910;28;20014;-34
2021/07/07 11:27:56;;;;;;;3.85;1.63;;;23.30;90.10;;;;;;4991308;28;20034;-34
2021/07/07 11:30:22;;;;;;;2.70;1.30;;;23.40;90.10;;;;;;4992536;28;20023;-34
2021/07/07 11:33:00;;;;;;;3.25;1.23;;;23.50;90.30;;;;;;4992798;28;20022;-34
2021/07/07 11:35:30;;;;;;;5.97;2.15;;;23.70;90.30;;;;;;4992529;28;20366;-34
2021/07/07 11:38:20;;;;;;;2.90;1.50;;;23.80;89.30;;;;;;4992436;28;20061;-34
2021/07/07 11:40:46;;;;;;;3.50;1.38;;;23.90;88.50;;;;;;4992235;28;20395;-33
2021/07/07 11:43:13;;;;;;;3.60;1.42;;;23.90;89.00;;;;;;4992491;28;20020;-34
2021/07/07 11:45:41;;;;;;;1.67;1.20;;;24.00;88.60;;;;;;4990835;28;20442;-34
2021/07/07 11:48:20;;;;;;;1.80;1.13;;;24.00;88.40;;;;;;4991916;28;20096;-32
2021/07/07 11:50:49;;;;;;;1.60;1.10;;;24.10;88.80;;;;;;4992287;28;20099;-33
2021/07/07 11:53:15;;;;;;;2.60;1.10;;;24.30;89.30;;;;;;4992601;28;20026;-33
2021/07/07 11:55:54;;;;;;;2.50;1.40;;;24.40;89.20;;;;;;4991315;28;20031;-33
2021/07/07 11:58:31;;;;;;;4.22;1.63;;;24.60;88.80;;;;;;4972858;28;20046;-33
2021/07/07 12:01:05;;;;;;;2.53;1.30;;;24.60;87.40;;;;;;4987825;28;20026;-33
2021/07/07 12:03:31;;;;;;;2.90;1.27;;;24.60;86.00;;;;;;4972820;28;20385;-33
2021/07/07 12:06:06;;;;;;;2.33;1.50;;;24.50;85.70;;;;;;4986581;28;20525;-33
2021/07/07 12:08:37;;;;;;;2.45;1.00;;;24.40;83.90;;;;;;4991459;28;20046;-33
2021/07/07 12:11:14;;;;;;;2.88;1.30;;;24.30;85.30;;;;;;4991707;28;20033;-33
2021/07/07 12:13:43;;;;;;;2.03;1.05;;;24.20;85.30;;;;;;4991586;28;20482;-33
2021/07/07 12:16:17;;;;;;;2.45;1.33;;;24.10;84.80;;;;;;4991291;28;20655;-33
2021/07/07 12:18:45;;;;;;;1.60;1.23;;;24.10;84.40;;;;;;4991118;28;20030;-33
2021/07/07 12:21:29;;;;;;;2.17;1.10;;;24.20;84.60;;;;;;4991049;28;20022;-33
2021/07/07 12:23:57;;;;;;;2.13;1.10;;;24.30;83.80;;;;;;4990943;28;20026;-33
2021/07/07 12:26:32;;;;;;;2.58;1.10;;;24.40;83.30;;;;;;4991968;28;20073;-34
2021/07/07 12:29:00;;;;;;;1.60;1.30;;;24.50;83.90;;;;;;4991496;28;20053;-33
2021/07/07 12:31:35;;;;;;;2.13;1.20;;;24.40;83.90;;;;;;4991272;28;20433;-35
2021/07/07 12:34:01;;;;;;;4.47;1.42;;;24.50;84.30;;;;;;4990222;28;20034;-34
2021/07/07 12:36:30;;;;;;;2.75;1.30;;;24.60;83.80;;;;;;4991691;28;20289;-34
2021/07/07 12:38:57;;;;;;;3.28;1.40;;;24.60;82.40;;;;;;4991131;28;20425;-34
2021/07/07 12:41:37;;;;;;;2.63;1.50;;;24.70;81.60;;;;;;4991628;28;20437;-34
2021/07/07 12:44:12;;;;;;;1.73;1.13;;;24.80;81.90;;;;;;4990739;28;20018;-34
2021/07/07 12:47:00;;;;;;;2.95;1.33;;;24.90;82.30;;;;;;4991721;28;20019;-34
2021/07/07 12:49:43;;;;;;;2.15;1.10;;;25.00;82.30;;;;;;4991837;28;20373;-34
2021/07/07 12:52:31;;;;;;;1.50;1.10;;;25.00;81.50;;;;;;4991212;28;20018;-34